createdAt,value
2018-09-03T00:01:39.490Z,99.90
2018-09-03T00:06:34.036Z,99.90
2018-09-03T00:11:28.477Z,99.90
2018-09-03T00:16:23.057Z,99.90
2018-09-03T00:21:17.521Z,99.90
2018-09-03T00:26:12.241Z,99.90
2018-09-03T00:31:12.292Z,99.90
2018-09-03T00:36:13.322Z,99.90
2018-09-03T00:41:12.976Z,99.90
2018-09-03T00:46:12.541Z,99.90
2018-09-03T00:51:07.757Z,99.90
2018-09-03T00:56:03.728Z,99.90
2018-09-03T01:00:58.131Z,99.90
2018-09-03T01:05:52.722Z,99.90
2018-09-03T01:10:47.081Z,99.90
2018-09-03T01:15:42.091Z,99.90
2018-09-03T01:20:36.494Z,99.90
2018-09-03T01:25:30.964Z,99.90
2018-09-03T01:30:25.384Z,99.90
2018-09-03T01:35:20.113Z,99.90
2018-09-03T01:40:14.786Z,99.90
2018-09-03T01:45:09.600Z,99.90
2018-09-03T01:50:04.563Z,99.90
2018-09-03T01:55:06.764Z,99.90
2018-09-03T02:00:01.666Z,99.90
2018-09-03T02:04:56.533Z,99.90
2018-09-03T02:09:50.874Z,99.90
2018-09-03T02:14:45.427Z,99.90
2018-09-03T02:19:40.064Z,99.90
2018-09-03T02:24:34.388Z,99.90
2018-09-03T02:29:29.484Z,99.90
2018-09-03T02:34:23.696Z,99.90
2018-09-03T02:39:18.908Z,99.90
2018-09-03T02:44:13.965Z,99.90
2018-09-03T02:49:08.688Z,99.90
2018-09-03T02:54:04.146Z,99.90
2018-09-03T02:58:58.854Z,99.90
2018-09-03T03:03:54.677Z,99.90
2018-09-03T03:08:49.468Z,99.90
2018-09-03T03:13:44.517Z,99.90
2018-09-03T03:18:39.078Z,99.90
2018-09-03T03:23:33.364Z,99.90
2018-09-03T03:33:29.094Z,99.90
2018-09-03T03:38:23.698Z,99.90
2018-09-03T03:43:18.752Z,99.90
2018-09-03T03:48:13.880Z,99.90
2018-09-03T03:53:08.745Z,99.90
2018-09-03T03:58:03.206Z,99.90
2018-09-03T04:02:57.534Z,99.90
2018-09-03T04:07:51.975Z,99.90
2018-09-03T04:12:51.629Z,99.90
2018-09-03T04:17:45.915Z,99.90
2018-09-03T04:22:48.542Z,99.90
2018-09-03T04:27:43.415Z,99.90
2018-09-03T04:32:38.882Z,99.90
2018-09-03T04:37:33.779Z,99.90
2018-09-03T04:42:28.154Z,99.90
2018-09-03T04:47:23.476Z,99.90
2018-09-03T04:52:18.481Z,99.90
2018-09-03T04:57:13.120Z,99.90
2018-09-03T05:02:09.492Z,99.90
2018-09-03T05:07:06.343Z,99.90
2018-09-03T05:12:00.900Z,99.90
2018-09-03T05:16:55.926Z,99.90
2018-09-03T05:21:50.974Z,99.90
2018-09-03T05:26:46.163Z,99.90
2018-09-03T05:31:42.611Z,99.90
2018-09-03T05:36:37.493Z,99.90
2018-09-03T05:41:33.266Z,99.90
2018-09-03T05:46:28.257Z,99.90
2018-09-03T05:51:24.703Z,99.90
2018-09-03T05:56:19.527Z,99.90
2018-09-03T06:01:14.997Z,99.90
2018-09-03T06:06:09.382Z,99.90
2018-09-03T06:11:05.401Z,99.90
2018-09-03T06:16:00.496Z,99.90
2018-09-03T06:20:55.151Z,99.90
2018-09-03T06:25:50.063Z,99.90
2018-09-03T06:30:45.039Z,99.90
2018-09-03T06:35:39.691Z,99.90
2018-09-03T06:40:34.791Z,99.90
2018-09-03T06:45:30.416Z,99.90
2018-09-03T06:50:26.955Z,99.90
2018-09-03T06:55:24.613Z,99.90
2018-09-03T07:00:20.391Z,99.90
2018-09-03T07:05:15.871Z,99.90
2018-09-03T07:10:10.712Z,99.90
2018-09-03T07:15:06.471Z,99.90
2018-09-03T07:20:01.045Z,99.90
2018-09-03T07:25:07.754Z,99.90
2018-09-03T07:30:03.962Z,99.90
2018-09-03T07:34:58.839Z,99.90
2018-09-03T07:39:54.829Z,99.90
2018-09-03T07:44:49.494Z,99.90
2018-09-03T07:49:44.616Z,99.90
2018-09-03T07:54:39.305Z,99.50
2018-09-03T07:59:35.484Z,98.20
2018-09-03T08:04:30.356Z,97.20
2018-09-03T08:09:32.177Z,95.40
2018-09-03T08:14:27.031Z,92.10
2018-09-03T08:19:21.601Z,88.30
2018-09-03T08:24:16.571Z,77.10
2018-09-03T08:29:10.924Z,67.10
2018-09-03T08:34:06.599Z,58.10
2018-09-03T08:39:00.931Z,53.40
2018-09-03T08:43:55.431Z,51.30
2018-09-03T08:48:51.750Z,50.20
2018-09-03T08:53:47.493Z,52.70
2018-09-03T08:58:43.493Z,54.70
2018-09-03T09:03:42.739Z,50.70
2018-09-03T09:08:38.586Z,52.40
2018-09-03T09:13:33.673Z,50.30
2018-09-03T09:18:29.226Z,49.00
2018-09-03T09:23:24.253Z,52.20
2018-09-03T09:28:18.721Z,53.20
2018-09-03T09:33:13.528Z,49.20
2018-09-03T09:38:08.289Z,47.70
2018-09-03T09:43:03.457Z,49.00
2018-09-03T09:47:57.921Z,51.40
2018-09-03T09:52:53.487Z,54.40
2018-09-03T09:57:47.974Z,51.70
2018-09-03T10:02:45.121Z,50.10
2018-09-03T10:07:39.759Z,48.20
2018-09-03T10:12:35.218Z,51.50
2018-09-03T10:17:30.676Z,54.20
2018-09-03T10:22:25.339Z,58.10
2018-09-03T10:27:19.920Z,60.50
2018-09-03T10:32:14.844Z,60.50
2018-09-03T10:37:09.603Z,63.20
2018-09-03T10:42:08.029Z,65.10
2018-09-03T10:47:03.936Z,63.20
2018-09-03T10:51:58.998Z,64.80
2018-09-03T10:56:53.820Z,66.80
2018-09-03T11:01:49.212Z,63.30
2018-09-03T11:06:45.567Z,63.60
2018-09-03T11:11:41.738Z,65.80
2018-09-03T11:16:37.322Z,65.30
2018-09-03T11:21:33.082Z,66.80
2018-09-03T11:26:28.053Z,63.80
2018-09-03T11:31:22.324Z,63.90
2018-09-03T11:36:17.165Z,65.10
2018-09-03T11:41:12.169Z,66.90
2018-09-03T11:46:08.017Z,68.00
2018-09-03T11:51:03.209Z,67.80
2018-09-03T11:55:57.589Z,67.40
2018-09-03T12:00:57.111Z,66.20
2018-09-03T12:05:52.364Z,67.80
2018-09-03T12:10:47.260Z,68.80
2018-09-03T12:15:45.988Z,70.10
2018-09-03T12:20:42.077Z,71.40
2018-09-03T12:25:36.536Z,73.00
2018-09-03T12:30:33.802Z,77.00
2018-09-03T12:35:33.541Z,81.70
2018-09-03T12:40:28.009Z,84.10
2018-09-03T12:45:28.111Z,87.70
2018-09-03T12:50:23.581Z,89.40
2018-09-03T12:55:19.404Z,90.50
2018-09-03T13:00:21.194Z,91.50
2018-09-03T13:05:18.296Z,91.10
2018-09-03T13:10:13.477Z,91.40
2018-09-03T13:15:08.597Z,90.20
2018-09-03T13:20:05.988Z,88.60
2018-09-03T13:25:00.989Z,85.40
2018-09-03T13:29:55.441Z,82.80
2018-09-03T13:34:50.796Z,80.50
2018-09-03T13:39:57.804Z,81.50
2018-09-03T13:44:53.494Z,81.10
2018-09-03T13:49:47.755Z,79.00
2018-09-03T14:04:13.884Z,73.80
2018-09-03T14:09:09.031Z,76.00
2018-09-03T14:14:06.312Z,75.20
2018-09-03T14:19:01.084Z,73.40
2018-09-03T14:23:55.758Z,73.60
2018-09-03T14:28:50.902Z,75.30
2018-09-03T14:33:45.748Z,76.30
2018-09-03T14:38:43.372Z,67.50
2018-09-03T14:43:38.649Z,61.20
2018-09-03T14:48:41.096Z,60.80
2018-09-03T14:53:44.607Z,63.10
2018-09-03T14:58:40.486Z,65.90
2018-09-03T15:03:36.178Z,66.90
2018-09-03T15:08:34.519Z,67.60
2018-09-03T15:13:29.105Z,67.90
2018-09-03T15:18:23.773Z,67.80
2018-09-03T15:23:18.024Z,68.80
2018-09-03T15:28:14.167Z,67.80
2018-09-03T15:33:09.477Z,68.60
2018-09-03T15:38:05.566Z,69.10
2018-09-03T15:43:00.166Z,68.20
2018-09-03T15:47:55.988Z,68.30
2018-09-03T15:52:51.049Z,67.40
2018-09-03T15:57:53.776Z,67.70
2018-09-03T16:02:49.310Z,68.40
2018-09-03T16:07:44.033Z,68.60
2018-09-03T16:12:39.592Z,68.30
2018-09-03T16:17:34.356Z,69.10
2018-09-03T16:22:37.483Z,69.30
2018-09-03T16:27:32.517Z,69.90
2018-09-03T16:32:27.216Z,71.00
2018-09-03T16:37:37.857Z,71.00
2018-09-03T16:42:33.399Z,71.70
2018-09-03T16:47:28.200Z,72.30
2018-09-03T16:52:24.154Z,74.40
2018-09-03T16:57:18.958Z,76.30
2018-09-03T17:02:13.332Z,76.90
2018-09-03T17:07:09.766Z,76.40
2018-09-03T17:12:06.987Z,76.00
2018-09-03T17:17:05.195Z,78.10
2018-09-03T17:21:59.734Z,77.80
2018-09-03T17:26:54.830Z,78.00
2018-09-03T17:31:50.251Z,78.90
2018-09-03T17:36:45.012Z,79.50
2018-09-03T17:41:40.192Z,79.40
2018-09-03T17:46:37.566Z,80.00
2018-09-03T17:51:32.569Z,80.40
2018-09-03T17:56:27.955Z,81.30
2018-09-03T18:01:22.795Z,82.40
2018-09-03T18:06:21.172Z,82.40
2018-09-03T18:11:15.672Z,83.10
2018-09-03T18:16:11.708Z,84.00
2018-09-03T18:21:08.174Z,85.40
2018-09-03T18:26:07.512Z,86.20
2018-09-03T18:31:03.900Z,87.20
2018-09-03T18:35:59.426Z,87.40
2018-09-03T18:40:54.291Z,90.00
2018-09-03T18:45:59.694Z,89.00
2018-09-03T18:50:56.415Z,90.40
2018-09-03T18:55:50.984Z,90.60
2018-09-03T19:00:46.525Z,91.10
2018-09-03T19:05:40.865Z,91.30
2018-09-03T19:10:36.263Z,91.40
2018-09-03T19:15:30.967Z,91.30
2018-09-03T19:20:27.785Z,91.70
2018-09-03T19:25:22.365Z,92.30
2018-09-03T19:30:17.033Z,92.60
2018-09-03T19:35:11.630Z,92.80
2018-09-03T19:40:06.430Z,93.00
2018-09-03T19:45:02.421Z,92.50
2018-09-03T19:49:57.734Z,93.30
2018-09-03T19:54:55.755Z,93.20
2018-09-03T19:59:53.381Z,93.70
2018-09-03T20:04:54.493Z,93.70
2018-09-03T20:09:49.330Z,93.90
2018-09-03T20:14:52.314Z,94.60
2018-09-03T20:19:49.659Z,94.40
2018-09-03T20:24:45.645Z,95.30
2018-09-03T20:29:40.650Z,95.20
2018-09-03T20:34:35.761Z,95.40
2018-09-03T20:39:31.106Z,95.90
2018-09-03T20:44:25.550Z,95.60
2018-09-03T20:49:20.129Z,96.00
2018-09-03T20:54:14.522Z,96.30
2018-09-03T20:59:09.767Z,96.40
2018-09-03T21:04:05.395Z,96.20
2018-09-03T21:09:01.051Z,96.80
2018-09-03T21:13:55.501Z,97.00
2018-09-03T21:18:50.307Z,97.40
2018-09-03T21:23:44.977Z,98.20
2018-09-03T21:28:40.500Z,98.30
2018-09-03T21:33:35.615Z,98.60
2018-09-03T21:38:31.094Z,98.80
2018-09-03T21:43:25.405Z,98.50
2018-09-03T21:48:19.641Z,98.70
2018-09-03T21:53:14.062Z,98.80
2018-09-03T21:58:08.731Z,99.00
2018-09-03T22:03:19.465Z,99.20
2018-09-03T22:08:29.200Z,99.20
2018-09-03T22:13:25.049Z,99.40
2018-09-03T22:18:26.667Z,99.60
2018-09-03T22:23:28.593Z,99.50
2018-09-03T22:28:24.614Z,99.90
2018-09-03T22:33:20.098Z,99.90
2018-09-03T22:38:15.158Z,99.90
2018-09-03T22:43:09.550Z,99.90
2018-09-03T22:48:12.742Z,99.90
2018-09-03T22:53:16.542Z,99.90
2018-09-03T22:58:19.685Z,99.90
2018-09-03T23:03:14.346Z,99.90
2018-09-03T23:08:08.939Z,99.90
2018-09-03T23:13:04.610Z,99.90
2018-09-03T23:18:00.338Z,99.90
2018-09-03T23:22:55.316Z,99.90
2018-09-03T23:27:50.452Z,99.90
2018-09-03T23:32:44.927Z,99.90
2018-09-03T23:37:39.217Z,99.90
2018-09-03T23:42:34.109Z,99.90
2018-09-03T23:47:29.337Z,99.90
2018-09-03T23:52:23.972Z,99.90
2018-09-03T23:57:18.354Z,99.90
